createdAt,value
2017-12-22T00:02:35.729Z,12.30
2017-12-22T00:05:05.468Z,11.63
2017-12-22T00:07:35.005Z,11.03
2017-12-22T00:10:03.055Z,12.70
2017-12-22T00:12:32.094Z,12.53
2017-12-22T00:14:59.942Z,11.63
2017-12-22T00:17:28.018Z,11.97
2017-12-22T00:19:56.187Z,13.23
2017-12-22T00:22:29.240Z,14.00
2017-12-22T00:24:57.248Z,13.60
2017-12-22T00:27:26.132Z,15.70
2017-12-22T00:29:54.572Z,11.47
2017-12-22T00:32:23.192Z,11.33
2017-12-22T00:34:51.704Z,10.57
2017-12-22T00:37:19.911Z,11.13
2017-12-22T00:39:49.325Z,10.60
2017-12-22T00:42:18.697Z,11.13
2017-12-22T00:44:47.957Z,11.70
2017-12-22T00:47:16.008Z,10.50
2017-12-22T00:49:44.638Z,11.63
2017-12-22T00:52:14.737Z,12.40
2017-12-22T00:54:44.752Z,13.23
2017-12-22T00:57:13.403Z,10.13
2017-12-22T00:59:42.058Z,10.93
2017-12-22T01:02:10.012Z,12.30
2017-12-22T01:04:39.499Z,22.00
2017-12-22T01:07:09.411Z,9.67
2017-12-22T01:09:37.877Z,10.27
2017-12-22T01:12:05.996Z,10.13
2017-12-22T01:14:34.382Z,11.07
2017-12-22T01:19:11.327Z,9.73
2017-12-22T01:21:39.645Z,9.73
2017-12-22T01:24:08.404Z,9.57
2017-12-22T01:26:37.572Z,10.50
2017-12-22T01:29:06.950Z,10.03
2017-12-22T01:31:35.546Z,10.23
2017-12-22T01:34:03.828Z,9.70
2017-12-22T01:36:32.865Z,12.57
2017-12-22T01:39:02.452Z,10.73
2017-12-22T01:41:30.803Z,10.83
2017-12-22T01:43:58.884Z,11.60
2017-12-22T01:46:27.008Z,13.97
2017-12-22T01:48:55.588Z,12.10
2017-12-22T01:51:24.031Z,11.97
2017-12-22T01:53:53.057Z,13.40
2017-12-22T01:56:21.337Z,13.23
2017-12-22T01:58:49.986Z,11.17
2017-12-22T02:01:18.776Z,12.13
2017-12-22T02:03:48.776Z,15.53
2017-12-22T02:06:18.075Z,13.53
2017-12-22T02:08:46.364Z,14.63
2017-12-22T02:11:16.039Z,13.27
2017-12-22T02:13:44.742Z,13.00
2017-12-22T02:16:13.297Z,15.87
2017-12-22T02:18:43.071Z,15.40
2017-12-22T02:21:12.599Z,14.23
2017-12-22T02:23:41.627Z,13.73
2017-12-22T02:26:11.252Z,14.90
2017-12-22T02:28:40.219Z,17.87
2017-12-22T02:31:08.813Z,14.77
2017-12-22T02:33:37.956Z,16.77
2017-12-22T02:36:07.087Z,16.90
2017-12-22T02:38:36.439Z,17.97
2017-12-22T02:41:04.583Z,17.27
2017-12-22T02:43:33.110Z,19.27
2017-12-22T02:46:01.013Z,19.10
2017-12-22T02:48:30.444Z,19.07
2017-12-22T02:50:59.419Z,19.43
2017-12-22T02:53:27.848Z,17.20
2017-12-22T02:55:56.036Z,18.70
2017-12-22T02:58:25.085Z,18.47
2017-12-22T03:00:53.288Z,19.03
2017-12-22T03:03:22.080Z,19.40
2017-12-22T03:05:50.250Z,23.57
2017-12-22T03:08:18.288Z,24.50
2017-12-22T03:10:50.966Z,22.47
2017-12-22T03:13:18.762Z,25.93
2017-12-22T03:15:47.041Z,25.57
2017-12-22T03:18:15.044Z,25.60
2017-12-22T03:20:43.631Z,26.17
2017-12-22T03:23:16.687Z,28.73
2017-12-22T03:25:44.569Z,27.70
2017-12-22T03:28:12.414Z,29.37
2017-12-22T03:30:40.855Z,24.53
2017-12-22T03:33:08.825Z,29.53
2017-12-22T03:35:36.874Z,25.77
2017-12-22T03:38:05.621Z,28.57
2017-12-22T03:40:33.526Z,27.83
2017-12-22T03:43:01.669Z,25.23
2017-12-22T03:45:29.755Z,25.23
2017-12-22T03:47:57.791Z,32.33
2017-12-22T03:50:25.817Z,31.00
2017-12-22T03:52:54.584Z,25.53
2017-12-22T03:55:27.843Z,26.23
2017-12-22T03:57:56.466Z,28.80
2017-12-22T04:00:24.369Z,25.73
2017-12-22T04:02:52.488Z,28.67
2017-12-22T04:05:20.361Z,27.87
2017-12-22T04:07:48.313Z,24.17
2017-12-22T04:10:16.407Z,25.57
2017-12-22T04:12:44.268Z,25.53
2017-12-22T04:15:12.302Z,24.67
2017-12-22T04:17:41.343Z,24.00
2017-12-22T04:20:09.187Z,25.40
2017-12-22T04:22:37.173Z,23.83
2017-12-22T04:25:05.248Z,24.37
2017-12-22T04:27:34.362Z,26.17
2017-12-22T04:30:02.546Z,25.67
2017-12-22T04:32:31.997Z,28.03
2017-12-22T04:35:00.630Z,28.27
2017-12-22T04:37:28.782Z,31.23
2017-12-22T04:39:59.446Z,28.83
2017-12-22T04:42:33.051Z,26.47
2017-12-22T04:45:01.366Z,32.77
2017-12-22T04:47:29.662Z,30.47
2017-12-22T04:49:57.556Z,27.87
2017-12-22T04:52:25.819Z,27.80
2017-12-22T04:54:53.810Z,27.13
2017-12-22T04:57:21.699Z,25.63
2017-12-22T04:59:49.917Z,24.43
2017-12-22T05:02:18.568Z,27.73
2017-12-22T05:04:46.564Z,27.63
2017-12-22T05:07:16.520Z,29.07
2017-12-22T05:09:44.390Z,28.00
2017-12-22T05:12:12.373Z,27.50
2017-12-22T05:14:40.698Z,27.00
2017-12-22T05:17:08.612Z,25.70
2017-12-22T05:19:36.623Z,23.53
2017-12-22T05:22:04.697Z,24.13
2017-12-22T05:24:32.832Z,22.47
2017-12-22T05:27:01.498Z,26.40
2017-12-22T05:29:29.381Z,25.93
2017-12-22T05:31:57.863Z,24.47
2017-12-22T05:34:25.687Z,23.97
2017-12-22T05:36:53.976Z,25.50
2017-12-22T05:39:22.200Z,30.67
2017-12-22T05:41:50.239Z,31.17
2017-12-22T05:44:19.205Z,27.13
2017-12-22T05:46:47.126Z,30.10
2017-12-22T05:49:15.236Z,28.20
2017-12-22T05:51:45.011Z,25.43
2017-12-22T05:54:12.930Z,26.57
2017-12-22T05:56:41.031Z,26.60
2017-12-22T05:59:08.947Z,25.63
2017-12-22T06:01:36.998Z,23.67
2017-12-22T06:04:05.394Z,24.43
2017-12-22T06:06:34.100Z,28.63
2017-12-22T06:09:03.115Z,26.33
2017-12-22T06:11:34.261Z,29.37
2017-12-22T06:14:02.306Z,32.07
2017-12-22T06:16:30.641Z,28.10
2017-12-22T06:18:58.642Z,26.87
2017-12-22T06:21:26.531Z,64.20
2017-12-22T06:23:55.815Z,28.07
2017-12-22T06:26:27.550Z,27.47
2017-12-22T06:28:58.363Z,29.30
2017-12-22T06:31:30.100Z,28.70
2017-12-22T06:33:57.995Z,27.97
2017-12-22T06:36:38.006Z,28.80
2017-12-22T06:39:13.695Z,27.10
2017-12-22T06:41:48.477Z,25.10
2017-12-22T06:44:16.800Z,25.23
2017-12-22T06:46:45.488Z,23.00
2017-12-22T06:49:17.803Z,26.30
2017-12-22T06:51:52.232Z,25.13
2017-12-22T06:54:20.158Z,23.97
2017-12-22T06:56:48.971Z,21.03
2017-12-22T06:59:16.915Z,19.53
2017-12-22T07:01:45.926Z,16.97
2017-12-22T07:04:15.617Z,20.03
2017-12-22T07:06:43.634Z,21.90
2017-12-22T07:09:11.614Z,22.13
2017-12-22T07:11:41.055Z,21.07
2017-12-22T07:14:09.838Z,22.83
2017-12-22T07:16:38.578Z,19.43
2017-12-22T07:19:06.788Z,20.27
2017-12-22T07:21:54.065Z,21.70
2017-12-22T07:24:48.821Z,19.20
2017-12-22T07:27:31.725Z,19.50
2017-12-22T07:30:45.889Z,18.93
2017-12-22T07:35:59.851Z,23.50
2017-12-22T07:38:32.930Z,20.40
2017-12-22T07:41:01.372Z,20.33
2017-12-22T07:43:29.246Z,15.13
2017-12-22T07:45:57.273Z,20.47
2017-12-22T07:48:56.123Z,20.67
2017-12-22T07:51:29.243Z,21.90
2017-12-22T07:53:58.880Z,20.23
2017-12-22T07:56:29.750Z,18.47
2017-12-22T07:58:57.727Z,16.57
2017-12-22T08:01:29.173Z,18.33
2017-12-22T08:03:59.063Z,15.43
2017-12-22T08:06:27.618Z,18.13
2017-12-22T08:08:56.730Z,16.63
2017-12-22T08:11:25.728Z,14.70
2017-12-22T08:13:53.622Z,13.20
2017-12-22T08:16:22.590Z,15.83
2017-12-22T08:18:50.930Z,17.40
2017-12-22T08:21:18.850Z,14.70
2017-12-22T08:23:52.298Z,13.73
2017-12-22T08:26:20.434Z,15.37
2017-12-22T08:29:04.193Z,16.23
2017-12-22T08:31:54.112Z,13.27
2017-12-22T08:34:24.010Z,15.27
2017-12-22T08:36:52.648Z,15.13
2017-12-22T08:42:41.902Z,14.80
2017-12-22T08:45:11.814Z,12.33
2017-12-22T08:47:39.786Z,13.97
2017-12-22T08:50:08.055Z,14.13
2017-12-22T08:52:36.313Z,13.87
2017-12-22T08:55:42.202Z,8.00
2017-12-22T08:58:10.188Z,9.67
2017-12-22T09:00:38.269Z,8.50
2017-12-22T09:03:12.460Z,10.67
2017-12-22T09:05:44.176Z,13.23
2017-12-22T09:08:12.097Z,8.80
2017-12-22T09:10:41.237Z,7.67
2017-12-22T09:13:09.070Z,8.00
2017-12-22T09:15:37.866Z,7.50
2017-12-22T09:18:06.597Z,6.47
2017-12-22T09:20:35.268Z,7.27
2017-12-22T09:23:13.316Z,9.47
2017-12-22T09:25:41.243Z,7.43
2017-12-22T09:28:09.367Z,7.73
2017-12-22T09:30:37.283Z,8.03
2017-12-22T09:33:20.527Z,9.30
2017-12-22T09:35:49.069Z,8.37
2017-12-22T09:38:17.938Z,11.53
2017-12-22T09:40:51.451Z,12.70
2017-12-22T09:43:38.851Z,9.77
2017-12-22T09:46:12.476Z,9.30
2017-12-22T09:48:40.647Z,9.77
2017-12-22T09:51:08.845Z,7.80
2017-12-22T09:53:38.452Z,9.60
2017-12-22T09:56:07.257Z,9.20
2017-12-22T09:58:36.153Z,8.70
2017-12-22T10:01:05.089Z,9.47
2017-12-22T10:03:32.995Z,8.10
2017-12-22T10:06:00.969Z,7.07
2017-12-22T10:08:29.849Z,6.70
2017-12-22T10:10:59.882Z,9.63
2017-12-22T10:13:29.677Z,7.40
2017-12-22T10:16:00.963Z,10.37
2017-12-22T10:18:30.497Z,9.97
2017-12-22T10:21:03.540Z,10.77
2017-12-22T10:23:36.208Z,17.40
2017-12-22T10:26:08.558Z,10.37
2017-12-22T10:28:38.057Z,8.37
2017-12-22T10:31:10.158Z,7.73
2017-12-22T10:33:42.524Z,7.60
2017-12-22T10:36:11.831Z,9.27
2017-12-22T10:39:06.758Z,12.83
2017-12-22T10:41:36.800Z,12.53
2017-12-22T10:44:06.051Z,9.20
2017-12-22T10:46:37.527Z,6.60
2017-12-22T10:49:12.948Z,5.07
2017-12-22T10:54:29.242Z,6.50
2017-12-22T10:56:58.274Z,4.70
2017-12-22T10:59:27.468Z,4.70
2017-12-22T11:01:57.626Z,3.87
2017-12-22T11:04:25.837Z,4.60
2017-12-22T11:06:54.482Z,5.07
2017-12-22T11:09:23.392Z,5.83
2017-12-22T11:11:53.503Z,5.33
2017-12-22T11:14:27.607Z,5.70
2017-12-22T11:16:57.337Z,5.60
2017-12-22T11:19:25.852Z,4.97
2017-12-22T11:21:54.049Z,5.33
2017-12-22T11:24:25.193Z,5.83
2017-12-22T11:26:57.010Z,6.67
2017-12-22T11:29:33.505Z,4.73
2017-12-22T11:32:03.688Z,4.60
2017-12-22T11:35:03.028Z,4.90
2017-12-22T11:37:40.909Z,4.10
2017-12-22T11:40:10.434Z,5.03
2017-12-22T11:42:38.726Z,6.80
2017-12-22T11:45:08.953Z,4.43
2017-12-22T11:47:46.137Z,9.67
2017-12-22T11:50:39.504Z,8.60
2017-12-22T11:53:09.619Z,5.07
2017-12-22T11:55:45.854Z,5.90
2017-12-22T11:58:22.607Z,5.77
2017-12-22T12:00:51.515Z,4.13
2017-12-22T12:03:19.541Z,4.90
2017-12-22T12:05:50.648Z,5.53
2017-12-22T12:08:18.620Z,8.27
2017-12-22T12:10:51.509Z,5.77
2017-12-22T12:13:22.272Z,5.63
2017-12-22T12:15:51.720Z,7.53
2017-12-22T12:18:21.491Z,7.53
2017-12-22T12:20:58.857Z,8.97
2017-12-22T12:23:28.123Z,8.13
2017-12-22T12:25:57.830Z,10.30
2017-12-22T12:28:25.830Z,11.93
2017-12-22T12:30:56.279Z,11.00
2017-12-22T12:33:24.880Z,9.43
2017-12-22T12:35:54.847Z,9.23
2017-12-22T12:38:26.117Z,10.10
2017-12-22T12:40:56.403Z,13.07
2017-12-22T12:47:09.631Z,11.63
2017-12-22T12:49:38.469Z,9.57
2017-12-22T12:52:06.582Z,9.90
2017-12-22T12:54:38.269Z,12.70
2017-12-22T12:57:07.227Z,13.83
2017-12-22T12:59:36.323Z,13.63
2017-12-22T13:02:08.314Z,10.00
2017-12-22T13:04:39.441Z,9.87
2017-12-22T13:07:08.512Z,12.07
2017-12-22T13:09:39.057Z,9.90
2017-12-22T13:12:10.334Z,20.67
2017-12-22T13:15:09.027Z,16.70
2017-12-22T13:17:38.309Z,12.77
2017-12-22T13:20:08.126Z,11.27
2017-12-22T13:22:50.934Z,10.77
2017-12-22T13:25:42.653Z,10.83
2017-12-22T13:28:14.532Z,14.33
2017-12-22T13:30:44.689Z,15.43
2017-12-22T13:33:31.154Z,13.23
2017-12-22T13:36:04.663Z,11.30
2017-12-22T13:38:33.621Z,16.70
2017-12-22T13:41:06.102Z,12.33
2017-12-22T13:43:35.777Z,11.37
2017-12-22T13:46:06.726Z,13.13
2017-12-22T13:48:37.130Z,13.17
2017-12-22T13:51:05.604Z,13.37
2017-12-22T13:53:47.290Z,13.27
2017-12-22T13:56:16.693Z,12.80
2017-12-22T13:58:45.440Z,13.20
2017-12-22T14:01:15.647Z,13.07
2017-12-22T14:06:20.429Z,16.37
2017-12-22T14:08:48.352Z,12.97
2017-12-22T14:11:17.765Z,14.50
2017-12-22T14:13:47.348Z,15.47
2017-12-22T14:16:15.991Z,16.87
2017-12-22T14:18:44.395Z,17.00
2017-12-22T14:21:15.719Z,17.50
2017-12-22T14:23:44.900Z,19.07
2017-12-22T14:26:16.514Z,17.43
2017-12-22T14:28:44.642Z,18.17
2017-12-22T14:31:16.897Z,17.27
2017-12-22T14:34:05.640Z,18.43
2017-12-22T14:39:54.424Z,15.17
2017-12-22T14:42:22.562Z,19.67
2017-12-22T14:44:52.851Z,18.33
2017-12-22T14:47:32.279Z,18.43
2017-12-22T14:50:03.270Z,18.33
2017-12-22T14:52:51.712Z,20.27
2017-12-22T14:55:21.561Z,18.07
2017-12-22T14:57:49.892Z,25.80
2017-12-22T15:00:18.396Z,21.30
2017-12-22T15:02:49.989Z,21.43
2017-12-22T15:05:18.870Z,20.73
2017-12-22T15:07:47.441Z,58.10
2017-12-22T15:10:43.912Z,28.20
2017-12-22T15:14:00.931Z,27.20
2017-12-22T15:16:30.024Z,24.33
2017-12-22T15:18:57.952Z,20.67
2017-12-22T15:21:26.474Z,26.17
2017-12-22T15:23:54.573Z,19.00
2017-12-22T15:26:50.581Z,20.37
2017-12-22T15:29:20.231Z,23.93
2017-12-22T15:31:48.926Z,23.97
2017-12-22T15:34:23.123Z,29.60
2017-12-22T15:36:55.591Z,24.87
2017-12-22T15:39:36.106Z,23.30
2017-12-22T15:42:12.734Z,21.03
2017-12-22T15:44:42.626Z,25.33
2017-12-22T15:47:29.857Z,23.70
2017-12-22T15:49:59.342Z,20.93
2017-12-22T15:52:29.413Z,22.37
2017-12-22T15:55:04.254Z,23.50
2017-12-22T15:57:33.941Z,22.37
2017-12-22T16:00:05.926Z,25.37
2017-12-22T16:02:35.064Z,25.60
2017-12-22T16:05:03.848Z,25.83
2017-12-22T16:07:33.126Z,27.90
2017-12-22T16:10:04.901Z,28.07
2017-12-22T16:12:34.202Z,21.93
2017-12-22T16:15:03.620Z,28.90
2017-12-22T16:17:33.603Z,34.40
2017-12-22T16:20:02.909Z,28.97
2017-12-22T16:22:38.276Z,29.67
2017-12-22T16:25:07.199Z,60.43
2017-12-22T16:27:47.693Z,55.00
2017-12-22T16:30:16.721Z,56.73
2017-12-22T16:32:45.204Z,36.37
2017-12-22T16:35:14.845Z,27.43
2017-12-22T16:37:43.882Z,32.50
2017-12-22T16:40:12.727Z,28.37
2017-12-22T16:42:41.883Z,24.63
2017-12-22T16:45:10.098Z,25.00
2017-12-22T16:47:39.584Z,27.13
2017-12-22T16:50:08.336Z,39.67
2017-12-22T16:52:42.136Z,23.77
2017-12-22T16:55:12.177Z,24.13
2017-12-22T16:57:40.968Z,22.23
2017-12-22T17:00:10.675Z,24.07
2017-12-22T17:02:39.647Z,26.40
2017-12-22T17:05:11.043Z,25.70
2017-12-22T17:07:41.055Z,25.13
2017-12-22T17:10:10.132Z,25.40
2017-12-22T17:12:41.461Z,24.53
2017-12-22T17:15:10.377Z,24.30
2017-12-22T17:17:40.673Z,23.43
2017-12-22T17:20:13.546Z,28.47
2017-12-22T17:22:45.085Z,22.67
2017-12-22T17:25:15.289Z,22.40
2017-12-22T17:27:44.858Z,22.80
2017-12-22T17:30:16.694Z,26.57
2017-12-22T17:32:45.744Z,23.47
2017-12-22T17:35:15.805Z,24.77
2017-12-22T17:37:52.528Z,23.03
2017-12-22T17:40:22.522Z,24.43
2017-12-22T17:42:51.973Z,24.30
2017-12-22T17:45:21.583Z,23.50
2017-12-22T17:47:50.148Z,26.37
2017-12-22T17:50:20.711Z,26.67
2017-12-22T17:52:50.469Z,42.50
2017-12-22T17:55:20.334Z,23.47
2017-12-22T17:57:53.214Z,24.37
2017-12-22T18:00:24.465Z,25.80
2017-12-22T18:02:52.945Z,28.07
2017-12-22T18:05:35.865Z,24.43
2017-12-22T18:08:17.818Z,29.03
2017-12-22T18:10:49.464Z,25.00
2017-12-22T18:13:55.058Z,26.07
2017-12-22T18:16:25.889Z,26.17
2017-12-22T18:18:54.649Z,27.13
2017-12-22T18:21:38.804Z,29.30
2017-12-22T18:24:08.334Z,34.03
2017-12-22T18:26:37.435Z,26.40
2017-12-22T18:29:06.497Z,27.13
2017-12-22T18:31:40.668Z,26.17
2017-12-22T18:34:08.854Z,26.27
2017-12-22T18:36:37.085Z,26.17
2017-12-22T18:39:05.967Z,28.77
2017-12-22T18:41:36.185Z,28.33
2017-12-22T18:44:05.519Z,28.43
2017-12-22T18:47:21.739Z,29.77
2017-12-22T18:49:49.885Z,30.20
2017-12-22T18:52:20.812Z,32.73
2017-12-22T18:54:49.873Z,29.53
2017-12-22T18:57:22.309Z,27.97
2017-12-22T18:59:52.516Z,31.43
2017-12-22T19:02:20.682Z,32.13
2017-12-22T19:04:48.610Z,33.13
2017-12-22T19:07:16.794Z,33.70
2017-12-22T19:09:46.413Z,30.27
2017-12-22T19:12:17.664Z,34.00
2017-12-22T19:14:45.734Z,33.23
2017-12-22T19:17:14.481Z,34.10
2017-12-22T19:19:43.130Z,30.63
2017-12-22T19:22:12.674Z,29.67
2017-12-22T19:24:43.533Z,32.10
2017-12-22T19:27:11.831Z,34.07
2017-12-22T19:29:40.469Z,33.93
2017-12-22T19:32:09.606Z,32.00
2017-12-22T19:34:48.297Z,34.53
2017-12-22T19:37:53.955Z,36.20
2017-12-22T19:40:21.907Z,32.47
2017-12-22T19:42:50.791Z,34.40
2017-12-22T19:45:18.754Z,34.93
2017-12-22T19:47:51.410Z,35.83
2017-12-22T19:50:20.182Z,31.83
2017-12-22T19:52:49.497Z,32.37
2017-12-22T19:55:19.674Z,30.73
2017-12-22T19:57:48.280Z,35.10
2017-12-22T20:00:26.521Z,37.87
2017-12-22T20:02:56.794Z,34.13
2017-12-22T20:05:24.697Z,34.97
2017-12-22T20:07:53.007Z,33.37
2017-12-22T20:10:21.183Z,36.93
2017-12-22T20:13:01.486Z,35.37
2017-12-22T20:15:29.946Z,34.40
2017-12-22T20:17:57.980Z,34.87
2017-12-22T20:20:26.488Z,37.60
2017-12-22T20:22:54.836Z,35.27
2017-12-22T20:25:26.422Z,38.97
2017-12-22T20:27:54.687Z,37.67
2017-12-22T20:30:23.493Z,33.90
2017-12-22T20:32:51.958Z,29.70
2017-12-22T20:35:20.931Z,33.00
2017-12-22T20:37:50.284Z,33.57
2017-12-22T20:40:18.300Z,36.23
2017-12-22T20:42:47.525Z,32.80
2017-12-22T20:45:20.934Z,44.87
2017-12-22T20:50:33.488Z,41.47
2017-12-22T20:53:01.509Z,38.20
2017-12-22T20:55:33.552Z,36.70
2017-12-22T20:58:02.414Z,34.87
2017-12-22T21:00:31.285Z,36.47
2017-12-22T21:03:00.549Z,35.97
2017-12-22T21:05:28.743Z,35.17
2017-12-22T21:07:57.019Z,35.50
2017-12-22T21:10:29.018Z,38.07
2017-12-22T21:13:02.249Z,39.60
2017-12-22T21:15:34.468Z,40.03
2017-12-22T21:18:03.305Z,39.80
2017-12-22T21:20:31.980Z,43.23
2017-12-22T21:25:47.242Z,54.90
2017-12-22T21:28:15.637Z,34.10
2017-12-22T21:30:45.305Z,38.77
2017-12-22T21:33:22.381Z,36.77
2017-12-22T21:35:51.790Z,36.17
2017-12-22T21:38:19.759Z,36.00
2017-12-22T21:40:48.214Z,37.57
2017-12-22T21:43:16.295Z,39.43
2017-12-22T21:45:46.301Z,43.10
2017-12-22T21:48:15.710Z,38.67
2017-12-22T21:50:43.661Z,38.77
2017-12-22T21:53:18.098Z,41.67
2017-12-22T21:55:47.093Z,35.50
2017-12-22T21:58:15.786Z,39.03
2017-12-22T22:00:43.962Z,40.33
2017-12-22T22:03:12.001Z,37.80
2017-12-22T22:05:41.784Z,38.07
2017-12-22T22:08:11.674Z,35.87
2017-12-22T22:10:39.664Z,34.47
2017-12-22T22:13:14.293Z,33.30
2017-12-22T22:15:42.759Z,29.47
2017-12-22T22:18:13.561Z,34.50
2017-12-22T22:20:45.896Z,31.80
2017-12-22T22:23:16.428Z,29.73
2017-12-22T22:25:44.703Z,31.93
2017-12-22T22:28:12.687Z,35.30
2017-12-22T22:30:42.213Z,32.00
2017-12-22T22:33:10.669Z,33.93
2017-12-22T22:35:41.921Z,32.57
2017-12-22T22:38:10.117Z,33.63
2017-12-22T22:40:38.402Z,33.97
2017-12-22T22:43:06.510Z,33.47
2017-12-22T22:45:35.238Z,32.70
2017-12-22T22:48:07.142Z,38.60
2017-12-22T22:50:36.493Z,34.07
2017-12-22T22:53:06.916Z,36.57
2017-12-22T22:55:35.025Z,31.30
2017-12-22T22:58:03.720Z,36.77
2017-12-22T23:00:32.331Z,31.40
2017-12-22T23:03:01.423Z,32.97
2017-12-22T23:05:29.530Z,34.00
2017-12-22T23:07:57.483Z,33.83
2017-12-22T23:10:27.485Z,33.20
2017-12-22T23:13:00.564Z,34.03
2017-12-22T23:15:28.641Z,33.63
2017-12-22T23:17:57.329Z,31.17
2017-12-22T23:20:27.724Z,30.00
2017-12-22T23:22:56.182Z,27.30
2017-12-22T23:25:29.075Z,27.70
2017-12-22T23:27:58.599Z,29.60
2017-12-22T23:30:27.813Z,28.27
2017-12-22T23:32:57.780Z,27.30
2017-12-22T23:35:26.226Z,30.87
2017-12-22T23:37:54.437Z,31.03
2017-12-22T23:40:24.442Z,27.63
2017-12-22T23:42:53.322Z,28.20
2017-12-22T23:45:28.842Z,28.83
2017-12-22T23:47:59.861Z,27.93
2017-12-22T23:50:28.217Z,25.57
2017-12-22T23:52:56.806Z,26.27
2017-12-22T23:55:25.071Z,27.13
2017-12-22T23:57:56.326Z,28.97
